Terminal Aerodrome Forecast
Issued by NWS

Home | Current Version | Previous Version | Text Only | Print | Product List | Glossary On
Versions: 1 2 3 4 5 6 7 8 9 10 11 12 13 14 15 16 17 18 19 20 21 22 23 24 25 26 27 28 29 30 31 32
000
FTAK31 PANC 231740
TAFASN
TAF
PASN 231740Z 2318/2418 11006KT 1/4SM FG OVC003
      TEMPO 2320/2324 3SM BR OVC005
     FM240000 01015G25KT 2SM -RA BR OVC005
     FM240700 01015KT 4SM BR SCT003 OVC007=

USA.gov is the U.S. government's official web portal to all federal, state and local government web resources and services.